createdAt,value
2022-09-20T00:03:45.019Z,8.8
2022-09-20T00:09:22.663Z,8.8
2022-09-20T16:57:03.430Z,15.9
2022-09-20T17:02:27.060Z,15.5
2022-09-20T17:07:52.902Z,15
2022-09-20T17:13:30.130Z,14.6
2022-09-20T17:19:10.401Z,14.1
2022-09-20T17:24:32.186Z,13.6
2022-09-20T17:30:09.916Z,13.3
2022-09-20T17:35:38.192Z,12.9
2022-09-20T17:41:05.185Z,12.5
2022-09-20T17:46:27.539Z,12.2
2022-09-20T17:52:07.434Z,11.9
2022-09-20T17:57:13.418Z,11.6
2022-09-20T18:02:56.217Z,11.3
2022-09-20T18:08:19.361Z,11.1
2022-09-20T18:13:30.912Z,10.9
2022-09-20T18:18:52.761Z,10.6
2022-09-20T18:24:15.915Z,10.4
2022-09-20T18:29:56.968Z,10.2
2022-09-20T18:35:34.678Z,10
2022-09-20T18:41:13.761Z,9.8
2022-09-20T18:46:36.383Z,9.6
2022-09-20T18:51:27.534Z,9.4
2022-09-20T18:57:06.410Z,9.2
2022-09-20T19:02:56.817Z,8.9
2022-09-20T19:08:34.603Z,8.7
2022-09-20T19:14:04.126Z,8.4
2022-09-20T19:19:26.529Z,8.2
2022-09-20T19:25:04.579Z,8
2022-09-20T19:30:31.835Z,7.8
2022-09-20T19:35:53.704Z,7.6
2022-09-20T19:41:30.873Z,7.4
2022-09-20T19:47:09.736Z,7.3
2022-09-20T19:52:31.234Z,7.2
2022-09-20T19:57:55.538Z,7.1
2022-09-20T20:03:19.987Z,6.9
2022-09-20T20:08:44.609Z,6.8
2022-09-20T20:14:11.262Z,6.6
2022-09-20T20:19:03.454Z,6.6
2022-09-20T20:24:40.568Z,6.4
2022-09-20T20:30:03.442Z,6.3
2022-09-20T20:35:47.440Z,6.3
2022-09-20T20:41:25.391Z,6.2
2022-09-20T20:47:04.937Z,6.1
2022-09-20T20:52:44.975Z,6
2022-09-20T21:03:18.140Z,5.9
